Time;durP1;ratioP1;P1;durP2;ratioP2;P2;SDS_P1;SDS_P2;PMS_P1;PMS_P2;Temp;Humidity;BMP_temperature;BMP_pressure;BME280_temperature;BME280_humidity;BME280_pressure;Samples;Min_cycle;Max_cycle;Signal;HPM_P1;HPM_P2
2023/04/22 00:00:47;;;;;;;20.13;10.80;;;;;;;;;;10527778;28;20040;-81
2023/04/22 00:05:48;;;;;;;18.87;9.90;;;;;;;;;;10528030;28;20062;-81
2023/04/22 00:10:48;;;;;;;24.27;11.47;;;;;;;;;;10528407;28;20661;-80
2023/04/22 00:15:50;;;;;;;23.07;11.37;;;;;;;;;;10527175;28;20066;-81
2023/04/22 00:20:51;;;;;;;20.30;11.57;;;;;;;;;;10526535;28;20036;-81
2023/04/22 00:25:52;;;;;;;21.07;10.67;;;;;;;;;;10526769;28;20020;-80
2023/04/22 00:30:53;;;;;;;21.73;11.67;;;;;;;;;;10527557;28;20040;-81
2023/04/22 00:35:56;;;;;;;21.47;11.37;;;;;;;;;;10527325;28;20398;-81
2023/04/22 00:40:59;;;;;;;21.33;11.27;;;;;;;;;;10508465;28;20051;-81
2023/04/22 00:46:02;;;;;;;23.50;11.60;;;;;;;;;;10526602;28;20024;-81
2023/04/22 00:51:05;;;;;;;31.07;16.00;;;;;;;;;;10526971;28;20024;-81
2023/04/22 00:56:07;;;;;;;17.63;9.50;;;;;;;;;;10526352;28;20032;-81
2023/04/22 01:01:08;;;;;;;22.77;10.63;;;;;;;;;;10516208;28;20044;-81
2023/04/22 01:06:09;;;;;;;17.63;9.77;;;;;;;;;;10534393;28;20070;-80
2023/04/22 01:11:10;;;;;;;19.73;10.23;;;;;;;;;;10533951;28;20035;-82
2023/04/22 01:16:11;;;;;;;22.20;10.73;;;;;;;;;;10533568;28;20048;-81
2023/04/22 01:21:12;;;;;;;18.13;8.13;;;;;;;;;;10533473;28;20084;-81
2023/04/22 01:26:13;;;;;;;18.93;8.93;;;;;;;;;;10533594;28;20032;-81
2023/04/22 01:31:14;;;;;;;21.13;9.03;;;;;;;;;;10532775;28;20475;-81
2023/04/22 01:36:16;;;;;;;15.53;8.50;;;;;;;;;;10532985;28;20032;-81
2023/04/22 01:41:17;;;;;;;14.63;8.30;;;;;;;;;;10533211;28;20097;-81
2023/04/22 01:46:18;;;;;;;14.07;8.23;;;;;;;;;;10533760;28;20036;-81
2023/04/22 01:51:19;;;;;;;17.90;9.20;;;;;;;;;;10514800;28;20115;-81
2023/04/22 01:56:20;;;;;;;16.43;8.60;;;;;;;;;;10545681;28;20099;-81
2023/04/22 02:01:21;;;;;;;17.97;8.50;;;;;;;;;;10532260;28;20042;-81
2023/04/22 02:06:22;;;;;;;16.30;9.10;;;;;;;;;;10532025;28;20060;-81
2023/04/22 02:11:23;;;;;;;21.63;11.73;;;;;;;;;;10530961;28;20673;-81
2023/04/22 02:16:24;;;;;;;22.57;10.80;;;;;;;;;;10531438;28;20024;-82
2023/04/22 02:21:27;;;;;;;23.23;11.27;;;;;;;;;;10531254;28;20032;-81
2023/04/22 02:26:33;;;;;;;19.83;9.80;;;;;;;;;;10513876;28;20023;-82
2023/04/22 02:31:34;;;;;;;17.80;10.03;;;;;;;;;;10531313;28;20454;-81
2023/04/22 02:36:36;;;;;;;19.20;11.27;;;;;;;;;;10512713;28;20028;-82
2023/04/22 02:41:38;;;;;;;19.87;11.70;;;;;;;;;;10530777;28;20051;-82
2023/04/22 02:46:39;;;;;;;24.67;13.07;;;;;;;;;;10530187;28;20063;-81
2023/04/22 02:51:39;;;;;;;23.03;13.77;;;;;;;;;;10511966;28;20118;-82
2023/04/22 02:56:42;;;;;;;18.67;9.93;;;;;;;;;;10529938;28;20024;-81
2023/04/22 03:01:43;;;;;;;19.13;9.23;;;;;;;;;;10529974;28;20039;-81
2023/04/22 03:06:44;;;;;;;16.90;8.63;;;;;;;;;;10547624;28;20051;-81
2023/04/22 03:11:50;;;;;;;16.37;8.13;;;;;;;;;;10529522;28;20115;-81
2023/04/22 03:16:51;;;;;;;15.90;8.13;;;;;;;;;;10529812;28;20026;-82
2023/04/22 03:21:52;;;;;;;10.90;6.13;;;;;;;;;;10527982;28;20511;-81
2023/04/22 03:26:53;;;;;;;12.40;7.20;;;;;;;;;;10528566;28;20024;-81
2023/04/22 03:31:56;;;;;;;15.60;8.70;;;;;;;;;;10528113;28;20466;-81
2023/04/22 03:37:01;;;;;;;18.90;9.30;;;;;;;;;;10510382;28;20028;-81
2023/04/22 03:42:02;;;;;;;16.83;9.77;;;;;;;;;;10528522;28;20384;-81
2023/04/22 03:47:03;;;;;;;19.70;10.17;;;;;;;;;;10528217;28;20036;-81
2023/04/22 03:52:04;;;;;;;17.80;10.30;;;;;;;;;;10509650;28;20063;-81
2023/04/22 03:57:07;;;;;;;19.47;10.40;;;;;;;;;;10527709;28;20056;-81
2023/04/22 04:02:08;;;;;;;25.47;13.60;;;;;;;;;;10528048;28;20384;-81
2023/04/22 04:07:09;;;;;;;34.97;15.80;;;;;;;;;;10527601;28;20020;-81
2023/04/22 04:12:10;;;;;;;26.80;13.63;;;;;;;;;;10526972;28;20012;-81
2023/04/22 04:17:13;;;;;;;30.57;15.40;;;;;;;;;;10527805;28;20016;-81
2023/04/22 04:22:15;;;;;;;34.60;16.63;;;;;;;;;;10527209;28;20059;-81
2023/04/22 04:27:16;;;;;;;31.17;14.87;;;;;;;;;;10528038;28;20913;-81
2023/04/22 04:32:17;;;;;;;35.93;17.20;;;;;;;;;;10529089;28;20031;-82
2023/04/22 04:37:18;;;;;;;36.23;17.30;;;;;;;;;;10535709;28;20024;-81
2023/04/22 04:42:19;;;;;;;31.00;18.17;;;;;;;;;;10516632;28;20058;-81
2023/04/22 04:47:21;;;;;;;33.17;18.40;;;;;;;;;;10535508;28;20144;-81
2023/04/22 04:52:24;;;;;;;34.10;17.10;;;;;;;;;;10535825;28;20081;-81
2023/04/22 04:57:25;;;;;;;34.37;18.00;;;;;;;;;;10534646;28;20099;-81
2023/04/22 05:02:26;;;;;;;36.50;18.17;;;;;;;;;;10534062;28;20574;-81
2023/04/22 05:07:27;;;;;;;36.97;18.33;;;;;;;;;;10534700;28;20085;-82
2023/04/22 05:12:28;;;;;;;33.43;18.63;;;;;;;;;;10534526;28;20028;-81
2023/04/22 05:17:29;;;;;;;34.17;18.10;;;;;;;;;;10534271;28;20160;-81
2023/04/22 05:22:32;;;;;;;42.17;21.40;;;;;;;;;;10515672;28;20044;-81
2023/04/22 05:27:34;;;;;;;36.27;20.30;;;;;;;;;;10533743;28;20035;-82
2023/04/22 05:32:35;;;;;;;41.33;21.80;;;;;;;;;;10533984;28;20034;-81
2023/04/22 05:37:36;;;;;;;43.67;22.43;;;;;;;;;;10533440;28;20028;-82
2023/04/22 05:42:37;;;;;;;46.03;23.53;;;;;;;;;;10547271;28;20035;-82
2023/04/22 05:47:38;;;;;;;44.93;22.97;;;;;;;;;;10533105;28;20508;-81
2023/04/22 05:52:39;;;;;;;39.60;24.23;;;;;;;;;;10533183;28;20059;-81
2023/04/22 05:57:40;;;;;;;31.77;19.33;;;;;;;;;;10533758;28;20510;-82
2023/04/22 06:02:41;;;;;;;32.40;17.07;;;;;;;;;;10514455;28;20039;-82
2023/04/22 06:07:44;;;;;;;38.27;21.80;;;;;;;;;;10532086;28;20030;-82
2023/04/22 06:12:49;;;;;;;30.63;16.20;;;;;;;;;;10531703;28;20032;-81
2023/04/22 06:17:51;;;;;;;29.45;14.88;;;;;;;;;;10531523;28;20690;-82
2023/04/22 06:22:52;;;;;;;24.67;12.90;;;;;;;;;;10532042;28;20032;-82
2023/04/22 06:27:53;;;;;;;30.47;16.80;;;;;;;;;;10531253;28;20078;-82
2023/04/22 06:32:54;;;;;;;33.17;17.38;;;;;;;;;;10531097;28;20046;-81
2023/04/22 06:37:55;;;;;;;31.95;18.20;;;;;;;;;;10530863;28;20073;-82
2023/04/22 06:42:56;;;;;;;22.27;12.10;;;;;;;;;;10512551;28;20070;-82
2023/04/22 06:47:57;;;;;;;26.02;12.68;;;;;;;;;;10531134;28;20430;-79
2023/04/22 06:52:58;;;;;;;20.90;11.48;;;;;;;;;;10530871;28;20020;-81
2023/04/22 06:57:59;;;;;;;19.85;11.77;;;;;;;;;;10516344;28;20491;-82
2023/04/22 07:03:00;;;;;;;23.08;14.65;;;;;;;;;;10470218;28;20052;-82
2023/04/22 07:08:01;;;;;;;18.90;10.80;;;;;;;;;;10490960;28;20549;-83
2023/04/22 07:13:02;;;;;;;20.52;10.68;;;;;;;;;;10528665;28;20379;-82
2023/04/22 07:18:03;;;;;;;18.30;10.48;;;;;;;;;;10491581;28;20383;-82
2023/04/22 07:23:06;;;;;;;18.60;9.77;;;;;;;;;;10516113;28;20455;-80
2023/04/22 07:28:07;;;;;;;27.00;11.57;;;;;;;;;;10529051;28;20031;-80
2023/04/22 07:33:10;;;;;;;21.58;11.27;;;;;;;;;;10511150;28;20020;-81
2023/04/22 07:38:11;;;;;;;19.30;10.13;;;;;;;;;;10528529;28;20035;-79
2023/04/22 07:43:14;;;;;;;17.83;9.27;;;;;;;;;;10528796;28;20042;-81
2023/04/22 07:48:15;;;;;;;17.55;9.30;;;;;;;;;;10528782;28;20032;-80
2023/04/22 07:53:17;;;;;;;10.23;6.15;;;;;;;;;;10528126;28;20502;-81
2023/04/22 07:58:18;;;;;;;6.63;4.75;;;;;;;;;;10528658;28;20036;-81
2023/04/22 08:03:19;;;;;;;8.63;4.43;;;;;;;;;;10527518;28;20437;-81
2023/04/22 08:08:20;;;;;;;7.53;4.45;;;;;;;;;;10527075;28;20039;-81
2023/04/22 08:13:24;;;;;;;8.18;3.83;;;;;;;;;;10527232;28;20052;-83
2023/04/22 08:18:25;;;;;;;7.25;4.38;;;;;;;;;;10527804;28;20614;-82
2023/04/22 08:23:26;;;;;;;6.43;3.92;;;;;;;;;;10527042;28;20039;-82
2023/04/22 08:28:27;;;;;;;9.55;4.30;;;;;;;;;;10527386;28;20030;-81
2023/04/22 08:33:28;;;;;;;7.10;4.40;;;;;;;;;;10526857;28;20036;-82
2023/04/22 08:38:29;;;;;;;10.23;4.90;;;;;;;;;;10526895;28;20067;-82
2023/04/22 08:43:33;;;;;;;7.22;4.28;;;;;;;;;;10508461;28;20614;-82
2023/04/22 08:48:37;;;;;;;8.20;4.55;;;;;;;;;;10526811;28;20534;-81
2023/04/22 08:53:38;;;;;;;7.05;4.45;;;;;;;;;;10526901;28;20114;-81
2023/04/22 08:58:42;;;;;;;7.28;4.07;;;;;;;;;;10526867;28;20039;-81
2023/04/22 09:03:43;;;;;;;9.27;4.88;;;;;;;;;;10508401;28;20055;-82
2023/04/22 09:08:44;;;;;;;7.20;3.97;;;;;;;;;;10526642;28;20024;-81
2023/04/22 09:13:46;;;;;;;7.90;4.35;;;;;;;;;;10526728;28;20028;-82
2023/04/22 09:18:50;;;;;;;6.35;4.15;;;;;;;;;;10529524;28;20093;-82
2023/04/22 09:23:52;;;;;;;8.10;4.65;;;;;;;;;;10534056;28;20063;-81
2023/04/22 09:28:54;;;;;;;8.43;4.80;;;;;;;;;;10533765;28;20043;-81
2023/04/22 09:33:56;;;;;;;7.78;4.63;;;;;;;;;;10530884;28;20676;-82
2023/04/22 09:38:58;;;;;;;8.73;4.75;;;;;;;;;;10531418;28;20035;-82
2023/04/22 09:44:00;;;;;;;9.13;5.20;;;;;;;;;;10514900;28;20028;-81
2023/04/22 09:49:01;;;;;;;9.52;5.35;;;;;;;;;;10533482;28;20028;-82
2023/04/22 09:54:03;;;;;;;9.85;4.80;;;;;;;;;;10532952;28;20030;-81
2023/04/22 09:59:05;;;;;;;5.28;3.70;;;;;;;;;;10533811;28;20074;-81
2023/04/22 10:04:08;;;;;;;8.48;4.25;;;;;;;;;;10533319;28;20063;-81
2023/04/22 10:09:11;;;;;;;8.73;4.57;;;;;;;;;;10532605;28;20059;-81
2023/04/22 10:14:15;;;;;;;10.18;4.68;;;;;;;;;;10532691;28;20462;-81
2023/04/22 10:19:22;;;;;;;8.88;5.20;;;;;;;;;;10532931;28;20028;-82
2023/04/22 10:24:25;;;;;;;8.80;5.03;;;;;;;;;;10532837;28;20035;-81
2023/04/22 10:29:34;;;;;;;8.30;4.30;;;;;;;;;;10531212;28;20077;-81
2023/04/22 10:34:37;;;;;;;5.95;3.78;;;;;;;;;;10531592;28;20032;-83
2023/04/22 10:39:42;;;;;;;8.70;4.35;;;;;;;;;;10531978;28;20040;-81
2023/04/22 10:44:53;;;;;;;4.33;3.63;;;;;;;;;;10512817;28;20036;-82
2023/04/22 10:50:09;;;;;;;6.15;4.00;;;;;;;;;;10512582;28;20602;-81
2023/04/22 10:55:10;;;;;;;6.05;4.25;;;;;;;;;;10503048;28;20166;-82
2023/04/22 11:00:20;;;;;;;5.95;3.42;;;;;;;;;;10529274;28;20036;-81
2023/04/22 11:05:23;;;;;;;9.07;4.25;;;;;;;;;;10529881;28;20562;-81
2023/04/22 11:10:32;;;;;;;5.80;3.45;;;;;;;;;;10529454;28;20024;-82
2023/04/22 11:15:34;;;;;;;7.78;4.75;;;;;;;;;;10529596;28;20028;-82
2023/04/22 11:20:35;;;;;;;6.07;4.03;;;;;;;;;;10528240;28;20131;-82
2023/04/22 11:25:38;;;;;;;4.60;3.70;;;;;;;;;;10529288;28;20530;-81
2023/04/22 11:30:39;;;;;;;7.30;3.70;;;;;;;;;;10510556;28;20028;-82
2023/04/22 11:35:41;;;;;;;5.57;3.50;;;;;;;;;;10528223;28;20093;-81
2023/04/22 11:40:42;;;;;;;13.05;9.05;;;;;;;;;;10528283;28;20082;-81
2023/04/22 11:45:43;;;;;;;5.18;3.72;;;;;;;;;;10527863;28;20035;-83
2023/04/22 11:50:44;;;;;;;10.07;5.13;;;;;;;;;;10528408;28;20689;-80
2023/04/22 11:55:46;;;;;;;7.13;4.60;;;;;;;;;;10528907;28;20024;-80
2023/04/22 12:00:49;;;;;;;6.20;3.47;;;;;;;;;;10527217;28;20052;-82
2023/04/22 12:05:54;;;;;;;5.32;3.63;;;;;;;;;;10527105;28;20063;-81
2023/04/22 12:10:56;;;;;;;5.20;3.35;;;;;;;;;;10527378;28;20023;-80
2023/04/22 12:15:58;;;;;;;6.03;4.03;;;;;;;;;;10527783;28;20020;-82
2023/04/22 12:21:09;;;;;;;5.18;3.85;;;;;;;;;;10526862;28;20038;-81
2023/04/22 12:26:10;;;;;;;5.60;4.00;;;;;;;;;;10527107;28;20024;-81
2023/04/22 12:31:12;;;;;;;5.82;4.15;;;;;;;;;;10526841;28;20012;-80
2023/04/22 12:36:15;;;;;;;5.80;4.03;;;;;;;;;;10527448;28;20394;-81
2023/04/22 12:41:16;;;;;;;6.10;4.22;;;;;;;;;;10528917;28;20036;-80
2023/04/22 12:46:19;;;;;;;6.82;4.15;;;;;;;;;;10525469;28;20032;-80
2023/04/22 12:51:21;;;;;;;7.35;3.95;;;;;;;;;;10526537;28;20426;-81
2023/04/22 12:56:22;;;;;;;5.13;3.92;;;;;;;;;;10533925;28;20028;-80
2023/04/22 13:01:23;;;;;;;6.88;3.75;;;;;;;;;;10534441;28;20028;-80
2023/04/22 13:06:26;;;;;;;5.88;3.78;;;;;;;;;;10535038;28;20044;-80
2023/04/22 13:11:27;;;;;;;6.43;4.07;;;;;;;;;;10508543;28;20051;-80
2023/04/22 13:16:28;;;;;;;6.72;4.68;;;;;;;;;;10533908;28;20024;-80
2023/04/22 13:21:29;;;;;;;6.65;4.05;;;;;;;;;;10533729;28;20085;-81
2023/04/22 13:26:30;;;;;;;8.80;5.18;;;;;;;;;;10533591;28;20040;-80
2023/04/22 13:31:31;;;;;;;5.88;4.22;;;;;;;;;;10534337;28;20035;-81
2023/04/22 13:36:32;;;;;;;5.63;4.05;;;;;;;;;;10533026;28;20051;-80
2023/04/22 13:41:33;;;;;;;6.78;3.97;;;;;;;;;;10533523;28;20040;-81
2023/04/22 13:46:34;;;;;;;6.90;4.40;;;;;;;;;;10532904;28;20040;-80
2023/04/22 13:51:38;;;;;;;5.30;4.00;;;;;;;;;;10533384;28;20437;-81
2023/04/22 13:56:39;;;;;;;4.30;3.60;;;;;;;;;;10519106;28;20021;-80
2023/04/22 14:01:40;;;;;;;9.00;5.78;;;;;;;;;;10532025;28;20436;-82
2023/04/22 14:06:41;;;;;;;5.55;3.90;;;;;;;;;;10530985;28;20097;-81
2023/04/22 14:11:42;;;;;;;6.93;4.32;;;;;;;;;;10531748;28;20044;-80
2023/04/22 14:16:43;;;;;;;5.40;3.47;;;;;;;;;;10544119;28;20102;-80
2023/04/22 14:21:45;;;;;;;8.55;4.20;;;;;;;;;;10533026;28;20542;-80
2023/04/22 14:26:47;;;;;;;4.95;3.72;;;;;;;;;;10531258;28;20027;-80
2023/04/22 14:31:48;;;;;;;7.13;4.65;;;;;;;;;;10531385;28;20043;-82
2023/04/22 14:36:49;;;;;;;6.40;3.88;;;;;;;;;;10530379;28;20447;-80
2023/04/22 14:41:51;;;;;;;5.43;4.00;;;;;;;;;;10530989;28;20439;-80
2023/04/22 14:46:52;;;;;;;5.93;4.13;;;;;;;;;;10530304;28;20105;-80
2023/04/22 14:51:53;;;;;;;10.77;4.90;;;;;;;;;;10530045;28;20024;-80
2023/04/22 14:56:54;;;;;;;6.07;3.92;;;;;;;;;;10529578;28;20020;-80
2023/04/22 15:01:55;;;;;;;5.47;3.83;;;;;;;;;;10528290;28;20119;-80
2023/04/22 15:06:56;;;;;;;5.90;3.95;;;;;;;;;;10529428;28;20056;-81
2023/04/22 15:11:58;;;;;;;6.03;3.90;;;;;;;;;;10529237;28;20107;-81
2023/04/22 15:16:59;;;;;;;5.40;3.85;;;;;;;;;;10529175;28;20487;-80
2023/04/22 15:22:00;;;;;;;9.68;6.82;;;;;;;;;;10528736;28;20035;-79
2023/04/22 15:27:02;;;;;;;7.93;4.80;;;;;;;;;;10528352;28;20112;-80
2023/04/22 15:32:05;;;;;;;5.18;3.92;;;;;;;;;;10528594;28;20062;-81
2023/04/22 15:37:06;;;;;;;5.63;3.97;;;;;;;;;;10528572;28;20119;-79
2023/04/22 15:42:07;;;;;;;5.68;4.13;;;;;;;;;;10528610;28;20046;-80
2023/04/22 15:47:08;;;;;;;6.28;4.07;;;;;;;;;;10528631;28;20502;-80
2023/04/22 15:52:11;;;;;;;7.05;4.82;;;;;;;;;;10541726;28;20026;-80
2023/04/22 15:57:12;;;;;;;11.82;7.40;;;;;;;;;;10528063;28;20428;-80
2023/04/22 16:02:13;;;;;;;7.38;4.45;;;;;;;;;;10527459;28;20137;-80
2023/04/22 16:07:14;;;;;;;14.57;9.07;;;;;;;;;;10528336;28;20538;-81
2023/04/22 16:12:15;;;;;;;18.92;11.88;;;;;;;;;;10527382;28;20620;-79
2023/04/22 16:17:16;;;;;;;197.38;83.43;;;;;;;;;;10527345;28;20379;-80
2023/04/22 16:22:17;;;;;;;101.22;61.17;;;;;;;;;;10527783;28;20043;-80
2023/04/22 16:27:18;;;;;;;84.35;58.88;;;;;;;;;;10526597;28;20024;-80
2023/04/22 16:32:19;;;;;;;7.78;4.95;;;;;;;;;;10526861;28;20111;-80
2023/04/22 16:37:20;;;;;;;7.00;5.05;;;;;;;;;;10526572;28;20020;-79
2023/04/22 16:42:21;;;;;;;9.45;5.25;;;;;;;;;;10527112;28;20036;-80
2023/04/22 16:47:22;;;;;;;25.48;13.23;;;;;;;;;;10526890;28;20036;-80
2023/04/22 16:52:23;;;;;;;16.48;9.52;;;;;;;;;;10526171;28;20020;-80
2023/04/22 16:57:24;;;;;;;7.55;5.03;;;;;;;;;;10526278;28;20032;-80
2023/04/22 17:02:25;;;;;;;13.90;6.88;;;;;;;;;;10525790;28;20454;-80
2023/04/22 17:07:26;;;;;;;9.05;5.10;;;;;;;;;;10526570;28;20055;-81
2023/04/22 17:12:27;;;;;;;8.13;4.80;;;;;;;;;;10527251;28;20028;-80
2023/04/22 17:17:29;;;;;;;11.48;6.63;;;;;;;;;;10506309;28;20395;-83
2023/04/22 17:22:30;;;;;;;7.75;4.47;;;;;;;;;;10506417;28;20043;-81
2023/04/22 17:27:31;;;;;;;6.13;4.25;;;;;;;;;;10512251;28;20024;-81
2023/04/22 17:32:32;;;;;;;5.22;3.65;;;;;;;;;;10525180;28;20376;-80
2023/04/22 17:37:33;;;;;;;7.93;4.72;;;;;;;;;;10526104;28;20026;-80
2023/04/22 17:42:37;;;;;;;8.35;5.45;;;;;;;;;;10529691;28;20371;-80
2023/04/22 17:47:38;;;;;;;11.70;7.25;;;;;;;;;;10533048;28;20055;-79
2023/04/22 17:52:39;;;;;;;11.85;5.60;;;;;;;;;;10532242;28;20107;-80
2023/04/22 17:57:41;;;;;;;18.30;12.88;;;;;;;;;;10532835;28;20028;-80
2023/04/22 18:02:42;;;;;;;20.83;11.35;;;;;;;;;;10526039;28;20060;-79
2023/04/22 18:07:43;;;;;;;17.17;8.15;;;;;;;;;;10532613;28;20024;-81
2023/04/22 18:12:44;;;;;;;18.05;9.82;;;;;;;;;;10533223;28;20497;-81
2023/04/22 18:17:45;;;;;;;20.08;12.25;;;;;;;;;;10532347;28;20028;-79
2023/04/22 18:22:47;;;;;;;25.55;13.43;;;;;;;;;;10530587;28;20040;-79
2023/04/22 18:27:49;;;;;;;24.95;12.18;;;;;;;;;;10530987;28;20032;-78
2023/04/22 18:32:51;;;;;;;18.42;8.68;;;;;;;;;;10530539;28;20027;-79
2023/04/22 18:37:52;;;;;;;11.70;6.78;;;;;;;;;;10523442;28;20169;-79
2023/04/22 18:42:53;;;;;;;15.77;8.57;;;;;;;;;;10529330;28;20598;-79
2023/04/22 18:47:55;;;;;;;19.17;10.38;;;;;;;;;;10529588;28;20043;-79
2023/04/22 18:52:58;;;;;;;17.98;9.70;;;;;;;;;;10528550;28;20026;-79
2023/04/22 18:57:59;;;;;;;19.20;9.90;;;;;;;;;;10529736;28;20034;-80
2023/04/22 19:03:00;;;;;;;17.85;9.63;;;;;;;;;;10527613;28;20475;-79
2023/04/22 19:08:07;;;;;;;17.83;9.02;;;;;;;;;;10510955;28;20119;-79
2023/04/22 19:13:08;;;;;;;20.27;9.68;;;;;;;;;;10528620;28;20475;-79
2023/04/22 19:18:10;;;;;;;20.50;10.25;;;;;;;;;;10528687;28;20043;-80
2023/04/22 19:23:11;;;;;;;18.63;9.88;;;;;;;;;;10527539;28;20036;-80
2023/04/22 19:28:12;;;;;;;25.50;11.88;;;;;;;;;;10528316;28;20054;-79
2023/04/22 19:33:13;;;;;;;25.02;12.20;;;;;;;;;;10528481;28;20038;-79
2023/04/22 19:38:17;;;;;;;27.70;11.77;;;;;;;;;;10528066;28;20390;-79
2023/04/22 19:43:20;;;;;;;27.85;12.45;;;;;;;;;;10523204;28;20119;-80
2023/04/22 19:48:22;;;;;;;19.27;9.10;;;;;;;;;;10527240;28;20031;-80
2023/04/22 19:53:28;;;;;;;22.52;9.77;;;;;;;;;;10527043;28;20024;-80
2023/04/22 19:58:30;;;;;;;20.50;10.23;;;;;;;;;;10526102;28;20016;-79
2023/04/22 20:03:33;;;;;;;20.90;11.00;;;;;;;;;;10519744;28;20047;-79
2023/04/22 20:08:35;;;;;;;22.65;10.90;;;;;;;;;;10509481;28;20028;-79
2023/04/22 20:13:39;;;;;;;19.92;10.25;;;;;;;;;;10485569;28;20012;-78
2023/04/22 20:18:40;;;;;;;18.40;9.02;;;;;;;;;;10486339;28;20384;-77
2023/04/22 20:23:42;;;;;;;23.67;11.23;;;;;;;;;;10467189;28;20032;-79
2023/04/22 20:28:46;;;;;;;27.05;10.82;;;;;;;;;;10493037;28;20036;-80
2023/04/22 20:33:47;;;;;;;27.02;12.20;;;;;;;;;;10484896;28;20021;-79
2023/04/22 20:38:49;;;;;;;22.73;11.10;;;;;;;;;;10499790;28;20082;-79
2023/04/22 20:43:51;;;;;;;24.45;10.88;;;;;;;;;;10485497;28;20028;-78
2023/04/22 20:48:59;;;;;;;25.50;11.43;;;;;;;;;;10466622;28;20036;-79
2023/04/22 20:54:02;;;;;;;30.23;13.45;;;;;;;;;;10486309;28;20033;-80
2023/04/22 20:59:04;;;;;;;33.22;12.80;;;;;;;;;;10512846;28;20032;-80
2023/04/22 21:04:07;;;;;;;26.80;13.05;;;;;;;;;;10498403;28;20751;-79
2023/04/22 21:09:09;;;;;;;28.38;12.80;;;;;;;;;;10489682;28;20086;-79
2023/04/22 21:14:13;;;;;;;23.88;12.05;;;;;;;;;;10487937;28;20024;-80
2023/04/22 21:19:15;;;;;;;26.77;11.40;;;;;;;;;;10491489;28;20033;-80
2023/04/22 21:24:16;;;;;;;25.83;12.03;;;;;;;;;;10473566;28;20029;-79
2023/04/22 21:29:20;;;;;;;22.67;10.40;;;;;;;;;;10492296;28;20101;-79
2023/04/22 21:34:21;;;;;;;21.77;10.10;;;;;;;;;;10491031;28;20107;-80
2023/04/22 21:39:22;;;;;;;23.75;11.13;;;;;;;;;;10490793;28;20036;-79
2023/04/22 21:44:22;;;;;;;20.33;9.27;;;;;;;;;;10491125;28;20105;-79
2023/04/22 21:49:23;;;;;;;22.95;11.35;;;;;;;;;;10485987;28;20028;-79
2023/04/22 21:54:27;;;;;;;31.67;11.00;;;;;;;;;;10479978;28;20400;-80
2023/04/22 21:59:28;;;;;;;22.63;9.63;;;;;;;;;;10490614;28;20781;-80
2023/04/22 22:04:29;;;;;;;20.50;10.10;;;;;;;;;;10512529;28;20134;-79
2023/04/22 22:09:30;;;;;;;17.90;9.83;;;;;;;;;;10530835;28;20487;-79
2023/04/22 22:14:33;;;;;;;19.80;10.07;;;;;;;;;;10531689;28;20105;-79
2023/04/22 22:19:34;;;;;;;20.30;9.70;;;;;;;;;;10530177;28;20114;-80
2023/04/22 22:24:35;;;;;;;18.40;9.33;;;;;;;;;;10531043;28;20489;-80
2023/04/22 22:29:39;;;;;;;15.50;8.10;;;;;;;;;;10531393;28;20031;-81
2023/04/22 22:34:40;;;;;;;20.47;8.70;;;;;;;;;;10530955;28;20054;-79
2023/04/22 22:39:41;;;;;;;16.57;9.00;;;;;;;;;;10530144;28;20028;-80
2023/04/22 22:44:44;;;;;;;17.53;8.87;;;;;;;;;;10525826;28;20124;-80
2023/04/22 22:49:45;;;;;;;17.77;8.60;;;;;;;;;;10530238;28;20036;-80
2023/04/22 22:54:47;;;;;;;19.47;8.30;;;;;;;;;;10529681;28;20036;-78
2023/04/22 22:59:48;;;;;;;18.73;8.87;;;;;;;;;;10529612;28;20032;-80
2023/04/22 23:04:50;;;;;;;21.63;9.50;;;;;;;;;;10528005;28;20048;-79
2023/04/22 23:09:51;;;;;;;16.80;8.47;;;;;;;;;;10527632;28;20024;-80
2023/04/22 23:14:51;;;;;;;15.07;8.07;;;;;;;;;;10529222;28;20077;-79
2023/04/22 23:19:54;;;;;;;15.53;8.20;;;;;;;;;;10529595;28;20032;-80
2023/04/22 23:24:55;;;;;;;13.77;8.37;;;;;;;;;;10528563;28;20107;-80
2023/04/22 23:29:57;;;;;;;15.47;8.73;;;;;;;;;;10527563;28;20774;-81
2023/04/22 23:35:00;;;;;;;20.77;10.27;;;;;;;;;;10529173;28;20063;-80
2023/04/22 23:40:01;;;;;;;21.40;9.27;;;;;;;;;;10528752;28;20038;-79
2023/04/22 23:45:02;;;;;;;19.93;9.00;;;;;;;;;;10510688;28;20696;-79
2023/04/22 23:50:04;;;;;;;20.17;9.90;;;;;;;;;;10528279;28;20039;-81
2023/04/22 23:55:09;;;;;;;21.80;10.10;;;;;;;;;;10527660;28;20372;-81
